Time;durP1;ratioP1;P1;durP2;ratioP2;P2;SDS_P1;SDS_P2;PMS_P1;PMS_P2;Temp;Humidity;BMP_temperature;BMP_pressure;BME280_temperature;BME280_humidity;BME280_pressure;Samples;Min_cycle;Max_cycle;Signal;HPM_P1;HPM_P2
2022/03/10 00:00:11;;;;;;;12.47;10.30;;;;;;;;;;5069564;28;24903;-53
2022/03/10 00:02:37;;;;;;;11.40;10.27;;;;;;;;;;5065138;28;25157;-52
2022/03/10 00:05:02;;;;;;;11.57;10.37;;;;;;;;;;5066537;28;24541;-52
2022/03/10 00:07:28;;;;;;;12.77;10.57;;;;;;;;;;5065223;28;24423;-53
2022/03/10 00:09:53;;;;;;;10.40;9.40;;;;;;;;;;5076631;28;24467;-52
2022/03/10 00:12:19;;;;;;;10.98;9.77;;;;;;;;;;5066789;28;24414;-52
2022/03/10 00:14:44;;;;;;;10.88;9.77;;;;;;;;;;5066414;28;24425;-52
2022/03/10 00:17:09;;;;;;;10.43;9.40;;;;;;;;;;5063395;28;24423;-52
2022/03/10 00:19:34;;;;;;;10.80;9.70;;;;;;;;;;5068061;28;24872;-52
2022/03/10 00:22:00;;;;;;;10.63;9.63;;;;;;;;;;5075144;28;24415;-52
2022/03/10 00:24:25;;;;;;;10.50;9.50;;;;;;;;;;5067442;28;24422;-53
2022/03/10 00:26:50;;;;;;;10.20;9.20;;;;;;;;;;5066704;28;24430;-52
2022/03/10 00:29:15;;;;;;;10.18;9.07;;;;;;;;;;5067535;28;24486;-52
2022/03/10 00:31:40;;;;;;;10.47;9.37;;;;;;;;;;5073717;28;24749;-52
2022/03/10 00:34:06;;;;;;;10.00;9.10;;;;;;;;;;5067323;28;24417;-52
2022/03/10 00:36:31;;;;;;;11.10;10.00;;;;;;;;;;5067908;28;24449;-52
2022/03/10 00:38:56;;;;;;;10.97;9.97;;;;;;;;;;5071515;28;24414;-52
2022/03/10 00:41:21;;;;;;;12.15;10.25;;;;;;;;;;5073442;28;24493;-52
2022/03/10 00:43:46;;;;;;;11.00;9.90;;;;;;;;;;5063751;28;24960;-52
2022/03/10 00:46:12;;;;;;;10.60;9.50;;;;;;;;;;5065356;28;24439;-53
2022/03/10 00:48:37;;;;;;;11.27;10.18;;;;;;;;;;5062892;28;24425;-53
2022/03/10 00:51:03;;;;;;;11.30;10.10;;;;;;;;;;5066993;28;25027;-53
2022/03/10 00:53:28;;;;;;;10.52;9.52;;;;;;;;;;5069939;28;24407;-52
2022/03/10 00:55:53;;;;;;;10.88;9.78;;;;;;;;;;5066666;28;25020;-51
2022/03/10 00:58:18;;;;;;;9.87;9.00;;;;;;;;;;5066932;28;24574;-52
2022/03/10 01:00:43;;;;;;;10.17;9.17;;;;;;;;;;5066445;28;24465;-52
2022/03/10 01:03:09;;;;;;;9.68;8.80;;;;;;;;;;5066500;28;25183;-52
2022/03/10 01:05:34;;;;;;;9.57;8.65;;;;;;;;;;5066788;28;24415;-52
2022/03/10 01:07:59;;;;;;;9.57;8.60;;;;;;;;;;5067713;28;24447;-52
2022/03/10 01:10:25;;;;;;;9.32;8.43;;;;;;;;;;5066472;28;24463;-52
2022/03/10 01:12:50;;;;;;;9.02;8.13;;;;;;;;;;5064674;28;24453;-53
2022/03/10 01:15:16;;;;;;;9.60;8.70;;;;;;;;;;5063208;28;24445;-52
2022/03/10 01:17:42;;;;;;;9.00;8.07;;;;;;;;;;5066041;28;24415;-52
2022/03/10 01:20:07;;;;;;;9.80;8.50;;;;;;;;;;5067090;28;24769;-52
2022/03/10 01:22:34;;;;;;;9.70;8.70;;;;;;;;;;5066816;28;24450;-52
2022/03/10 01:24:59;;;;;;;10.30;8.50;;;;;;;;;;5066654;28;25016;-52
2022/03/10 01:27:24;;;;;;;9.70;8.20;;;;;;;;;;5065329;28;24448;-52
2022/03/10 01:29:49;;;;;;;9.80;8.80;;;;;;;;;;5059691;28;24888;-52
2022/03/10 01:32:15;;;;;;;9.70;8.80;;;;;;;;;;5064651;28;24411;-52
2022/03/10 01:34:40;;;;;;;10.37;9.37;;;;;;;;;;5066412;28;24415;-51
2022/03/10 01:37:05;;;;;;;8.97;8.07;;;;;;;;;;5065035;28;25014;-52
2022/03/10 01:39:32;;;;;;;9.93;8.93;;;;;;;;;;5065950;28;24407;-52
2022/03/10 01:41:58;;;;;;;9.00;8.20;;;;;;;;;;5060895;28;24984;-52
2022/03/10 01:44:24;;;;;;;11.55;8.70;;;;;;;;;;5059824;28;24407;-52
2022/03/10 01:46:49;;;;;;;9.48;8.57;;;;;;;;;;5064910;28;24426;-52
2022/03/10 01:49:15;;;;;;;9.37;8.47;;;;;;;;;;5066543;28;24845;-52
2022/03/10 01:51:40;;;;;;;9.68;8.68;;;;;;;;;;5063391;28;24425;-53
2022/03/10 01:54:06;;;;;;;9.73;8.80;;;;;;;;;;5062863;28;24410;-52
2022/03/10 01:56:32;;;;;;;10.45;9.45;;;;;;;;;;5065260;28;24403;-52
2022/03/10 01:58:58;;;;;;;10.67;9.67;;;;;;;;;;5066210;28;25777;-53
2022/03/10 02:01:24;;;;;;;9.90;8.90;;;;;;;;;;5062283;28;24476;-52
2022/03/10 02:03:49;;;;;;;10.10;9.10;;;;;;;;;;5065857;28;24817;-52
2022/03/10 02:06:14;;;;;;;10.45;9.45;;;;;;;;;;5065150;28;24422;-52
2022/03/10 02:11:23;;;;;;;10.50;9.40;;;;;;;;;;5064083;28;24409;-52
2022/03/10 02:13:48;;;;;;;10.20;9.20;;;;;;;;;;5065724;28;24798;-52
2022/03/10 02:18:59;;;;;;;9.27;8.48;;;;;;;;;;5066961;28;24426;-52
2022/03/10 02:21:24;;;;;;;9.70;8.80;;;;;;;;;;5070033;28;24419;-52
2022/03/10 02:23:50;;;;;;;10.27;9.17;;;;;;;;;;5067071;28;24422;-50
2022/03/10 02:26:15;;;;;;;9.50;8.60;;;;;;;;;;5062483;28;24494;-52
2022/03/10 02:28:40;;;;;;;10.33;9.33;;;;;;;;;;5064700;28;24426;-52
2022/03/10 02:31:05;;;;;;;10.03;9.03;;;;;;;;;;5065414;28;24438;-53
2022/03/10 02:33:30;;;;;;;11.60;10.15;;;;;;;;;;5065968;28;24457;-50
2022/03/10 02:35:56;;;;;;;10.20;9.03;;;;;;;;;;5061904;28;24761;-52
2022/03/10 02:38:21;;;;;;;11.03;9.30;;;;;;;;;;5067684;28;24411;-52
2022/03/10 02:40:47;;;;;;;11.00;9.20;;;;;;;;;;5069573;28;24411;-51
2022/03/10 02:43:12;;;;;;;10.10;8.98;;;;;;;;;;5070510;28;24431;-51
2022/03/10 02:45:37;;;;;;;10.60;9.50;;;;;;;;;;5070397;28;24773;-51
2022/03/10 02:48:03;;;;;;;10.02;9.10;;;;;;;;;;5069439;28;25057;-51
2022/03/10 02:50:28;;;;;;;10.50;9.30;;;;;;;;;;5069024;28;24967;-51
2022/03/10 02:52:54;;;;;;;9.67;8.73;;;;;;;;;;5073847;28;24545;-52
2022/03/10 02:55:19;;;;;;;10.53;9.27;;;;;;;;;;5077753;28;24419;-51
2022/03/10 02:57:44;;;;;;;10.00;9.00;;;;;;;;;;5069768;28;24425;-51
2022/03/10 03:00:09;;;;;;;10.27;8.90;;;;;;;;;;5068839;28;24422;-52
2022/03/10 03:02:35;;;;;;;10.07;8.97;;;;;;;;;;5068642;28;24473;-51
2022/03/10 03:05:01;;;;;;;10.43;9.40;;;;;;;;;;5068231;28;24419;-51
2022/03/10 03:07:26;;;;;;;9.40;8.48;;;;;;;;;;5068845;28;24426;-51
2022/03/10 03:09:51;;;;;;;10.10;9.03;;;;;;;;;;5069466;28;24506;-52
2022/03/10 03:12:16;;;;;;;10.45;9.25;;;;;;;;;;5069050;28;24493;-51
2022/03/10 03:14:41;;;;;;;9.40;8.50;;;;;;;;;;5066238;28;24453;-52
2022/03/10 03:17:07;;;;;;;9.50;8.60;;;;;;;;;;5069987;28;24960;-51
2022/03/10 03:19:32;;;;;;;9.70;8.70;;;;;;;;;;5068962;28;24449;-50
2022/03/10 03:21:57;;;;;;;9.60;8.50;;;;;;;;;;5068664;28;24454;-51
2022/03/10 03:24:22;;;;;;;9.82;8.82;;;;;;;;;;5069390;28;26312;-51
2022/03/10 03:26:47;;;;;;;10.50;9.40;;;;;;;;;;5071547;28;24982;-51
2022/03/10 03:29:13;;;;;;;10.43;8.90;;;;;;;;;;5076959;28;24498;-51
2022/03/10 03:31:38;;;;;;;10.17;9.07;;;;;;;;;;5068365;28;24411;-51
2022/03/10 03:34:09;;;;;;;9.85;8.85;;;;;;;;;;5070442;28;24406;-52
2022/03/10 03:36:35;;;;;;;10.93;8.90;;;;;;;;;;5065192;28;24417;-51
2022/03/10 03:39:00;;;;;;;11.40;9.10;;;;;;;;;;5070394;28;24781;-51
2022/03/10 03:41:25;;;;;;;9.90;8.90;;;;;;;;;;5068617;28;24522;-50
2022/03/10 03:43:50;;;;;;;9.93;8.80;;;;;;;;;;5067345;28;24442;-51
2022/03/10 03:46:15;;;;;;;9.77;8.77;;;;;;;;;;5068038;28;24484;-51
2022/03/10 03:48:40;;;;;;;10.30;9.10;;;;;;;;;;5067567;28;24458;-51
2022/03/10 03:51:06;;;;;;;10.10;9.10;;;;;;;;;;5074935;28;24501;-51
2022/03/10 03:53:31;;;;;;;9.35;8.45;;;;;;;;;;5066847;28;24472;-51
2022/03/10 03:55:56;;;;;;;10.07;9.00;;;;;;;;;;5066801;28;24769;-51
2022/03/10 03:58:21;;;;;;;11.93;9.30;;;;;;;;;;5070503;28;24418;-52
2022/03/10 04:00:46;;;;;;;9.90;8.90;;;;;;;;;;5071846;28;24414;-51
2022/03/10 04:03:11;;;;;;;10.73;9.00;;;;;;;;;;5070448;28;24818;-51
2022/03/10 04:05:37;;;;;;;10.77;8.63;;;;;;;;;;5067277;28;24425;-51
2022/03/10 04:08:02;;;;;;;9.85;8.80;;;;;;;;;;5067310;28;24445;-51
2022/03/10 04:10:28;;;;;;;10.60;9.60;;;;;;;;;;5074602;28;24737;-51
2022/03/10 04:12:53;;;;;;;10.27;9.17;;;;;;;;;;5066304;28;24576;-50
2022/03/10 04:15:18;;;;;;;10.50;9.40;;;;;;;;;;5065290;28;24507;-50
2022/03/10 04:17:43;;;;;;;10.57;9.00;;;;;;;;;;5060950;28;24584;-50
2022/03/10 04:20:13;;;;;;;10.33;9.33;;;;;;;;;;5067032;28;24808;-51
2022/03/10 04:22:38;;;;;;;9.70;8.70;;;;;;;;;;5065958;28;24430;-51
2022/03/10 04:25:05;;;;;;;10.25;8.70;;;;;;;;;;5067583;28;24422;-51
2022/03/10 04:27:30;;;;;;;10.35;8.40;;;;;;;;;;5057504;28;24433;-51
2022/03/10 04:29:55;;;;;;;10.63;9.60;;;;;;;;;;5065057;28;24414;-50
2022/03/10 04:32:20;;;;;;;10.00;9.00;;;;;;;;;;5063494;28;24459;-51
2022/03/10 04:34:45;;;;;;;9.05;8.15;;;;;;;;;;5067017;28;24407;-51
2022/03/10 04:37:11;;;;;;;9.73;8.73;;;;;;;;;;5065888;28;24932;-51
2022/03/10 04:39:36;;;;;;;9.70;7.85;;;;;;;;;;5062676;28;24437;-52
2022/03/10 04:42:01;;;;;;;9.73;8.73;;;;;;;;;;5064288;28;24577;-52
2022/03/10 04:44:26;;;;;;;10.20;8.73;;;;;;;;;;5066039;28;24975;-50
2022/03/10 04:46:51;;;;;;;10.95;9.13;;;;;;;;;;5076105;28;24450;-51
2022/03/10 04:49:16;;;;;;;11.52;9.25;;;;;;;;;;5065107;28;24446;-51
2022/03/10 04:51:41;;;;;;;10.43;9.40;;;;;;;;;;5066302;28;25267;-51
2022/03/10 04:54:06;;;;;;;10.60;9.50;;;;;;;;;;5067966;28;24409;-51
2022/03/10 04:56:33;;;;;;;11.85;9.32;;;;;;;;;;5064136;28;24533;-51
2022/03/10 04:58:58;;;;;;;11.10;9.30;;;;;;;;;;5071047;28;24398;-50
2022/03/10 05:01:23;;;;;;;11.55;9.30;;;;;;;;;;5065312;28;24976;-52
2022/03/10 05:03:50;;;;;;;11.55;9.13;;;;;;;;;;5071370;28;24524;-50
2022/03/10 05:06:15;;;;;;;11.93;10.43;;;;;;;;;;5066788;28;24445;-51
2022/03/10 05:08:40;;;;;;;11.07;9.00;;;;;;;;;;5074803;28;24945;-50
2022/03/10 05:11:05;;;;;;;10.83;8.90;;;;;;;;;;5063955;28;24474;-51
2022/03/10 05:13:30;;;;;;;9.20;8.20;;;;;;;;;;5057895;28;24776;-51
2022/03/10 05:15:56;;;;;;;10.27;9.25;;;;;;;;;;5066733;28;24777;-53
2022/03/10 05:18:21;;;;;;;11.98;8.90;;;;;;;;;;5072129;28;24418;-52
2022/03/10 05:20:46;;;;;;;10.25;9.13;;;;;;;;;;5075287;28;24450;-53
2022/03/10 05:23:12;;;;;;;10.15;9.15;;;;;;;;;;5067163;28;24871;-52
2022/03/10 05:25:39;;;;;;;10.10;8.80;;;;;;;;;;5068357;28;24568;-52
2022/03/10 05:28:04;;;;;;;9.35;8.35;;;;;;;;;;5065882;28;24525;-52
2022/03/10 05:30:30;;;;;;;9.57;8.67;;;;;;;;;;5072773;28;25313;-52
2022/03/10 05:32:55;;;;;;;9.80;8.77;;;;;;;;;;5062441;28;24411;-53
2022/03/10 05:35:20;;;;;;;12.90;9.37;;;;;;;;;;5066465;28;24410;-52
2022/03/10 05:37:46;;;;;;;9.70;8.70;;;;;;;;;;5071992;28;24793;-52
2022/03/10 05:40:13;;;;;;;11.80;10.43;;;;;;;;;;5065177;28;24514;-52
2022/03/10 05:42:40;;;;;;;10.77;8.50;;;;;;;;;;5070392;28;24520;-52
2022/03/10 05:45:06;;;;;;;10.40;8.68;;;;;;;;;;5054604;28;25082;-52
2022/03/10 05:47:32;;;;;;;9.97;8.43;;;;;;;;;;5067168;28;24442;-53
2022/03/10 05:49:57;;;;;;;10.00;9.00;;;;;;;;;;5063033;28;24421;-52
2022/03/10 05:52:22;;;;;;;10.30;9.30;;;;;;;;;;5066047;28;24421;-53
2022/03/10 05:54:47;;;;;;;12.57;11.30;;;;;;;;;;5064412;28;24871;-52
2022/03/10 05:57:12;;;;;;;13.13;11.43;;;;;;;;;;5063927;28;24418;-52
2022/03/10 05:59:37;;;;;;;13.35;11.70;;;;;;;;;;5066665;28;24972;-52
2022/03/10 06:02:03;;;;;;;12.47;11.30;;;;;;;;;;5064233;28;24415;-52
2022/03/10 06:04:28;;;;;;;12.40;10.50;;;;;;;;;;5072909;28;24415;-51
2022/03/10 06:06:53;;;;;;;11.67;10.57;;;;;;;;;;5063182;28;24434;-52
2022/03/10 06:09:18;;;;;;;12.40;11.30;;;;;;;;;;5064734;28;24495;-52
2022/03/10 06:11:43;;;;;;;14.00;12.60;;;;;;;;;;5069801;28;24821;-52
2022/03/10 06:14:10;;;;;;;11.80;10.60;;;;;;;;;;5066039;28;24414;-52
2022/03/10 06:16:35;;;;;;;11.80;10.57;;;;;;;;;;5073943;28;25046;-53
2022/03/10 06:19:00;;;;;;;12.95;11.40;;;;;;;;;;5086032;28;24421;-52
2022/03/10 06:21:26;;;;;;;12.10;10.88;;;;;;;;;;5075897;28;24773;-52
2022/03/10 06:23:52;;;;;;;12.23;10.87;;;;;;;;;;5069269;28;24562;-52
2022/03/10 06:26:17;;;;;;;14.25;10.63;;;;;;;;;;5067459;28;24457;-52
2022/03/10 06:28:42;;;;;;;11.70;10.50;;;;;;;;;;5068784;28;24418;-53
2022/03/10 06:31:07;;;;;;;10.83;9.73;;;;;;;;;;5070046;28;24473;-51
2022/03/10 06:33:33;;;;;;;10.65;9.60;;;;;;;;;;5069946;28;24968;-51
2022/03/10 06:35:58;;;;;;;11.70;9.93;;;;;;;;;;5070069;28;25022;-52
2022/03/10 06:38:23;;;;;;;12.65;10.57;;;;;;;;;;5070224;28;24419;-52
2022/03/10 06:40:48;;;;;;;14.13;11.30;;;;;;;;;;5070034;28;24975;-52
2022/03/10 06:43:13;;;;;;;12.07;10.77;;;;;;;;;;5070222;28;24477;-52
2022/03/10 06:45:38;;;;;;;12.10;10.43;;;;;;;;;;5073946;28;24434;-53
2022/03/10 06:48:04;;;;;;;11.82;10.20;;;;;;;;;;5074502;28;24840;-52
2022/03/10 06:50:29;;;;;;;12.67;10.73;;;;;;;;;;5065393;28;24421;-52
2022/03/10 06:52:56;;;;;;;12.05;10.85;;;;;;;;;;5065543;28;24494;-51
2022/03/10 06:55:22;;;;;;;11.43;10.30;;;;;;;;;;5068861;28;24421;-51
2022/03/10 06:57:47;;;;;;;11.57;10.27;;;;;;;;;;5066392;28;24478;-52
2022/03/10 07:00:13;;;;;;;12.32;11.07;;;;;;;;;;5086779;28;25004;-51
2022/03/10 07:02:38;;;;;;;12.53;11.03;;;;;;;;;;5089799;28;24390;-51
2022/03/10 07:05:03;;;;;;;13.20;10.90;;;;;;;;;;5072633;28;24422;-52
2022/03/10 07:07:28;;;;;;;12.13;10.30;;;;;;;;;;5069439;28;24434;-52
2022/03/10 07:09:53;;;;;;;12.02;10.70;;;;;;;;;;5069787;28;24959;-51
2022/03/10 07:12:18;;;;;;;12.77;11.20;;;;;;;;;;5069824;28;24394;-52
2022/03/10 07:14:44;;;;;;;12.00;10.80;;;;;;;;;;5067574;28;24471;-51
2022/03/10 07:17:09;;;;;;;11.83;10.40;;;;;;;;;;5068664;28;24929;-51
2022/03/10 07:19:34;;;;;;;13.05;11.65;;;;;;;;;;5067676;28;24418;-51
2022/03/10 07:21:59;;;;;;;11.97;10.77;;;;;;;;;;5069740;28;24515;-52
2022/03/10 07:24:25;;;;;;;12.18;10.88;;;;;;;;;;5066136;28;24441;-51
2022/03/10 07:26:50;;;;;;;12.93;11.20;;;;;;;;;;5069430;28;24956;-51
2022/03/10 07:29:16;;;;;;;12.20;10.90;;;;;;;;;;5059986;28;24546;-51
2022/03/10 07:31:41;;;;;;;12.45;11.13;;;;;;;;;;5049034;28;24403;-51
2022/03/10 07:34:06;;;;;;;14.10;11.90;;;;;;;;;;5056730;28;24522;-51
2022/03/10 07:36:32;;;;;;;14.90;12.00;;;;;;;;;;5068294;28;24417;-51
2022/03/10 07:38:57;;;;;;;13.27;11.88;;;;;;;;;;5059376;28;24801;-51
2022/03/10 07:41:22;;;;;;;12.23;10.93;;;;;;;;;;5048943;28;24477;-52
2022/03/10 07:43:47;;;;;;;13.90;12.05;;;;;;;;;;5048197;28;24495;-51
2022/03/10 07:46:13;;;;;;;12.53;11.23;;;;;;;;;;5056068;28;24472;-51
2022/03/10 07:48:38;;;;;;;12.98;11.68;;;;;;;;;;5058465;28;24499;-52
2022/03/10 07:51:03;;;;;;;12.47;11.20;;;;;;;;;;5048667;28;24482;-52
2022/03/10 07:53:28;;;;;;;13.32;12.02;;;;;;;;;;5048032;28;24418;-52
2022/03/10 07:55:56;;;;;;;13.03;11.70;;;;;;;;;;5048335;28;24537;-51
2022/03/10 07:58:25;;;;;;;13.68;12.18;;;;;;;;;;5057731;28;24455;-52
2022/03/10 08:00:54;;;;;;;13.30;11.90;;;;;;;;;;5048751;28;24514;-52
2022/03/10 08:03:19;;;;;;;14.95;13.35;;;;;;;;;;5047649;28;24514;-51
2022/03/10 08:05:44;;;;;;;15.20;13.20;;;;;;;;;;5048435;28;24550;-51
2022/03/10 08:08:09;;;;;;;14.20;12.70;;;;;;;;;;5049145;28;24438;-51
2022/03/10 08:10:34;;;;;;;14.70;13.10;;;;;;;;;;5048375;28;24932;-52
2022/03/10 08:13:00;;;;;;;14.17;12.67;;;;;;;;;;5059664;28;24426;-52
2022/03/10 08:15:26;;;;;;;15.10;12.70;;;;;;;;;;5068596;28;24391;-53
2022/03/10 08:17:51;;;;;;;14.80;12.55;;;;;;;;;;5061171;28;24445;-51
2022/03/10 08:20:16;;;;;;;16.23;12.87;;;;;;;;;;5066274;28;24919;-53
2022/03/10 08:22:41;;;;;;;16.23;13.20;;;;;;;;;;5052327;28;24441;-52
2022/03/10 08:25:07;;;;;;;14.63;12.43;;;;;;;;;;5047998;28;24550;-53
2022/03/10 08:27:32;;;;;;;14.00;12.50;;;;;;;;;;5060988;28;24426;-52
2022/03/10 08:29:57;;;;;;;17.03;12.97;;;;;;;;;;5068494;28;24509;-52
2022/03/10 08:32:25;;;;;;;16.20;13.40;;;;;;;;;;5063873;28;24488;-52
2022/03/10 08:34:50;;;;;;;16.90;13.93;;;;;;;;;;5067677;28;24395;-54
2022/03/10 08:37:17;;;;;;;16.13;13.30;;;;;;;;;;5066116;28;24502;-52
2022/03/10 08:39:42;;;;;;;14.48;12.20;;;;;;;;;;5068122;28;24484;-52
2022/03/10 08:42:07;;;;;;;15.40;12.80;;;;;;;;;;5055518;28;24478;-52
2022/03/10 08:44:32;;;;;;;16.70;13.37;;;;;;;;;;5067424;28;24391;-52
2022/03/10 08:46:58;;;;;;;15.97;12.73;;;;;;;;;;5066554;28;24488;-52
2022/03/10 08:49:23;;;;;;;16.80;14.88;;;;;;;;;;5067735;28;24494;-53
2022/03/10 08:51:49;;;;;;;15.90;13.43;;;;;;;;;;5065534;28;24454;-54
2022/03/10 08:54:14;;;;;;;16.35;12.60;;;;;;;;;;5067476;28;24410;-52
2022/03/10 08:56:40;;;;;;;15.05;12.93;;;;;;;;;;5066410;28;24423;-52
2022/03/10 08:59:05;;;;;;;17.20;13.37;;;;;;;;;;5067651;28;24386;-52
2022/03/10 09:01:30;;;;;;;15.75;13.48;;;;;;;;;;5064833;28;24654;-53
2022/03/10 09:03:55;;;;;;;15.27;13.57;;;;;;;;;;5067250;28;24415;-53
2022/03/10 09:06:20;;;;;;;14.10;12.38;;;;;;;;;;5066284;28;24422;-51
2022/03/10 09:08:45;;;;;;;16.40;13.00;;;;;;;;;;5067337;28;24407;-51
2022/03/10 09:11:10;;;;;;;15.07;13.33;;;;;;;;;;5048117;28;24515;-52
2022/03/10 09:13:36;;;;;;;16.88;12.88;;;;;;;;;;5061331;28;24762;-52
2022/03/10 09:16:01;;;;;;;16.33;12.70;;;;;;;;;;5066063;28;24769;-52
2022/03/10 09:18:26;;;;;;;17.43;14.27;;;;;;;;;;5067040;28;24418;-52
2022/03/10 09:20:52;;;;;;;15.27;13.33;;;;;;;;;;5064676;28;24423;-52
2022/03/10 09:23:17;;;;;;;14.80;13.20;;;;;;;;;;5066855;28;24854;-53
2022/03/10 09:25:42;;;;;;;16.80;13.83;;;;;;;;;;5065476;28;24782;-52
2022/03/10 09:28:07;;;;;;;14.93;12.13;;;;;;;;;;5067019;28;24431;-52
2022/03/10 09:30:33;;;;;;;15.37;13.10;;;;;;;;;;5046544;28;24849;-52
2022/03/10 09:32:58;;;;;;;14.40;12.80;;;;;;;;;;5046457;28;24390;-53
2022/03/10 09:35:23;;;;;;;13.57;11.70;;;;;;;;;;5048493;28;24454;-52
2022/03/10 09:37:48;;;;;;;16.17;12.50;;;;;;;;;;5065951;28;24460;-53
2022/03/10 09:40:14;;;;;;;15.65;12.48;;;;;;;;;;5047229;28;24418;-51
2022/03/10 09:42:39;;;;;;;15.23;12.40;;;;;;;;;;5045679;28;24492;-51
2022/03/10 09:45:07;;;;;;;13.33;11.30;;;;;;;;;;5047045;28;24407;-52
2022/03/10 09:47:33;;;;;;;13.82;12.30;;;;;;;;;;5062232;28;24418;-52
2022/03/10 09:50:01;;;;;;;15.13;12.30;;;;;;;;;;5066910;28;24997;-52
2022/03/10 09:52:27;;;;;;;12.90;11.25;;;;;;;;;;5060230;28;24422;-52
2022/03/10 09:54:52;;;;;;;13.73;11.90;;;;;;;;;;5046708;28;24556;-52
2022/03/10 09:57:18;;;;;;;14.60;12.00;;;;;;;;;;5051321;28;25012;-52
2022/03/10 09:59:46;;;;;;;12.90;11.37;;;;;;;;;;5066694;28;24399;-52
2022/03/10 10:02:12;;;;;;;12.60;11.15;;;;;;;;;;5066429;28;24502;-52
2022/03/10 10:04:37;;;;;;;14.40;11.52;;;;;;;;;;5066887;28;24893;-51
2022/03/10 10:07:06;;;;;;;13.88;10.60;;;;;;;;;;5055866;28;24422;-51
2022/03/10 10:09:41;;;;;;;12.73;10.43;;;;;;;;;;5046956;28;24399;-52
2022/03/10 10:12:06;;;;;;;12.75;10.90;;;;;;;;;;5057384;28;24515;-51
2022/03/10 10:14:39;;;;;;;14.10;11.00;;;;;;;;;;5066634;28;25083;-52
2022/03/10 10:17:04;;;;;;;12.17;10.60;;;;;;;;;;5052955;28;24500;-52
2022/03/10 10:19:31;;;;;;;12.87;10.37;;;;;;;;;;5046925;28;24860;-51
2022/03/10 10:22:09;;;;;;;12.07;10.70;;;;;;;;;;5045777;28;24423;-51
2022/03/10 10:24:35;;;;;;;13.60;11.30;;;;;;;;;;5062845;28;24477;-51
2022/03/10 10:27:33;;;;;;;13.10;11.18;;;;;;;;;;5049839;28;25027;-51
2022/03/10 10:29:59;;;;;;;12.17;10.30;;;;;;;;;;4990793;28;24831;-51
2022/03/10 10:32:43;;;;;;;11.57;9.90;;;;;;;;;;5066223;28;24518;-52
2022/03/10 10:35:08;;;;;;;11.75;9.30;;;;;;;;;;5062556;28;24823;-52
2022/03/10 10:37:34;;;;;;;10.30;9.17;;;;;;;;;;5046162;28;24999;-52
2022/03/10 10:39:59;;;;;;;10.45;8.93;;;;;;;;;;5045791;28;24556;-52
2022/03/10 10:42:31;;;;;;;9.63;8.63;;;;;;;;;;5046492;28;24865;-52
2022/03/10 10:44:58;;;;;;;9.55;8.23;;;;;;;;;;5054948;28;24983;-51
2022/03/10 10:47:24;;;;;;;8.98;7.20;;;;;;;;;;5066673;28;24422;-51
2022/03/10 10:49:55;;;;;;;9.30;7.50;;;;;;;;;;5064853;28;24411;-51
2022/03/10 10:52:21;;;;;;;8.07;7.28;;;;;;;;;;5065376;28;24932;-52
2022/03/10 10:54:46;;;;;;;8.20;6.70;;;;;;;;;;5063424;28;24484;-52
2022/03/10 10:57:19;;;;;;;8.30;7.40;;;;;;;;;;5066775;28;24540;-52
2022/03/10 10:59:44;;;;;;;9.07;6.90;;;;;;;;;;5060556;28;24506;-52
2022/03/10 11:02:11;;;;;;;8.60;7.70;;;;;;;;;;5049697;28;24822;-52
2022/03/10 11:04:37;;;;;;;8.63;6.97;;;;;;;;;;5048915;28;25007;-52
2022/03/10 11:07:03;;;;;;;9.35;7.50;;;;;;;;;;5067257;28;25272;-51
2022/03/10 11:09:30;;;;;;;7.82;6.97;;;;;;;;;;5060892;28;24445;-52
2022/03/10 11:11:55;;;;;;;7.90;6.75;;;;;;;;;;5049563;28;24403;-52
2022/03/10 11:14:20;;;;;;;9.20;8.17;;;;;;;;;;5048996;28;24774;-52
2022/03/10 11:16:45;;;;;;;9.93;7.93;;;;;;;;;;5060644;28;24494;-52
2022/03/10 11:19:11;;;;;;;9.80;7.97;;;;;;;;;;5068311;28;24960;-52
2022/03/10 11:22:06;;;;;;;9.18;7.22;;;;;;;;;;5068612;28;24452;-52
2022/03/10 11:24:48;;;;;;;10.75;8.05;;;;;;;;;;5027475;28;24431;-53
2022/03/10 11:27:16;;;;;;;9.43;7.63;;;;;;;;;;5060088;28;24475;-52
2022/03/10 11:29:42;;;;;;;8.80;7.72;;;;;;;;;;5052392;28;24423;-51
2022/03/10 11:32:09;;;;;;;8.80;7.90;;;;;;;;;;5048949;28;24893;-51
2022/03/10 11:34:43;;;;;;;9.57;8.00;;;;;;;;;;5064589;28;24418;-51
2022/03/10 11:37:12;;;;;;;9.05;7.80;;;;;;;;;;5069067;28;24418;-52
2022/03/10 11:39:53;;;;;;;9.27;7.97;;;;;;;;;;5049991;28;24427;-52
2022/03/10 11:42:37;;;;;;;9.70;8.02;;;;;;;;;;5047726;28;24522;-52
2022/03/10 11:45:08;;;;;;;10.73;8.20;;;;;;;;;;5048927;28;24991;-51
2022/03/10 11:47:34;;;;;;;8.73;7.60;;;;;;;;;;5058939;28;24423;-52
2022/03/10 11:50:24;;;;;;;8.77;7.70;;;;;;;;;;5068785;28;24843;-56
2022/03/10 11:52:50;;;;;;;10.20;8.70;;;;;;;;;;5058720;28;24524;-52
2022/03/10 11:55:16;;;;;;;9.80;8.80;;;;;;;;;;5049476;28;24399;-50
2022/03/10 11:57:42;;;;;;;10.00;8.52;;;;;;;;;;5055636;28;24429;-51
2022/03/10 12:00:07;;;;;;;9.20;8.30;;;;;;;;;;5069052;28;24439;-52
2022/03/10 12:02:40;;;;;;;9.67;8.53;;;;;;;;;;5058698;28;24610;-52
2022/03/10 12:05:05;;;;;;;9.40;8.50;;;;;;;;;;5048522;28;24402;-52
2022/03/10 12:07:31;;;;;;;9.20;8.30;;;;;;;;;;5057569;28;24427;-52
2022/03/10 12:10:03;;;;;;;10.63;9.20;;;;;;;;;;5068219;28;24489;-52
2022/03/10 12:12:29;;;;;;;10.45;9.13;;;;;;;;;;5054587;28;24445;-52
2022/03/10 12:14:56;;;;;;;10.53;9.13;;;;;;;;;;5047658;28;24395;-52
2022/03/10 12:17:40;;;;;;;10.68;9.57;;;;;;;;;;5059699;28;24488;-52
2022/03/10 12:20:12;;;;;;;10.60;9.50;;;;;;;;;;5067760;28;24480;-52
2022/03/10 12:22:37;;;;;;;12.45;10.25;;;;;;;;;;5050764;28;24422;-52
2022/03/10 12:25:18;;;;;;;12.80;10.98;;;;;;;;;;5047745;28;24399;-53
2022/03/10 12:27:48;;;;;;;11.85;10.65;;;;;;;;;;5065787;28;24484;-52
2022/03/10 12:30:13;;;;;;;13.40;11.43;;;;;;;;;;5067779;28;24415;-53
2022/03/10 12:32:41;;;;;;;12.67;10.90;;;;;;;;;;5047558;28;24418;-52
2022/03/10 12:35:07;;;;;;;13.23;10.90;;;;;;;;;;5052842;28;24429;-52
2022/03/10 12:37:32;;;;;;;15.40;12.30;;;;;;;;;;5068432;28;24823;-51
2022/03/10 12:39:58;;;;;;;15.55;13.02;;;;;;;;;;5066394;28;24451;-51
2022/03/10 12:42:23;;;;;;;13.90;12.10;;;;;;;;;;5067832;28;24498;-52
2022/03/10 12:44:48;;;;;;;14.10;12.60;;;;;;;;;;5064964;28;24421;-51
2022/03/10 12:47:15;;;;;;;13.68;12.27;;;;;;;;;;5047875;28;24476;-51
2022/03/10 12:49:46;;;;;;;13.35;11.95;;;;;;;;;;5051429;28;25020;-52
2022/03/10 12:52:12;;;;;;;15.55;12.82;;;;;;;;;;5067145;28;24443;-53
2022/03/10 12:54:38;;;;;;;14.65;12.75;;;;;;;;;;5059806;28;25046;-53
2022/03/10 12:57:05;;;;;;;16.00;12.70;;;;;;;;;;5047623;28;24411;-51
2022/03/10 12:59:33;;;;;;;14.70;12.30;;;;;;;;;;5053653;28;24464;-52
2022/03/10 13:02:17;;;;;;;14.77;13.15;;;;;;;;;;5067286;28;24445;-52
2022/03/10 13:04:49;;;;;;;14.10;12.60;;;;;;;;;;5068001;28;24801;-52
2022/03/10 13:07:15;;;;;;;14.60;13.00;;;;;;;;;;5067780;28;24479;-52
2022/03/10 13:09:40;;;;;;;15.57;13.93;;;;;;;;;;5067609;28;24390;-51
2022/03/10 13:12:06;;;;;;;14.67;13.00;;;;;;;;;;5066813;28;24414;-51
2022/03/10 13:14:31;;;;;;;17.30;13.53;;;;;;;;;;5067938;28;24387;-51
2022/03/10 13:16:56;;;;;;;15.17;13.43;;;;;;;;;;5067651;28;24430;-51
2022/03/10 13:19:23;;;;;;;16.20;13.70;;;;;;;;;;5067475;28;24399;-52
2022/03/10 13:21:49;;;;;;;16.80;15.10;;;;;;;;;;5066534;28;24409;-52
2022/03/10 13:24:53;;;;;;;16.58;14.32;;;;;;;;;;5067734;28;24744;-51
2022/03/10 13:27:19;;;;;;;18.85;15.25;;;;;;;;;;4966342;28;24970;-52
2022/03/10 13:29:52;;;;;;;19.08;16.10;;;;;;;;;;4966335;28;24401;-51
2022/03/10 13:32:21;;;;;;;18.08;15.85;;;;;;;;;;5017053;28;25006;-51
2022/03/10 13:34:47;;;;;;;19.98;15.70;;;;;;;;;;5067207;28;24402;-53
2022/03/10 13:37:13;;;;;;;19.33;17.23;;;;;;;;;;5067299;28;24403;-51
2022/03/10 13:39:39;;;;;;;20.52;18.33;;;;;;;;;;5067341;28;24874;-51
2022/03/10 13:42:06;;;;;;;21.50;17.63;;;;;;;;;;5066443;28;24517;-52
2022/03/10 13:44:34;;;;;;;20.13;17.45;;;;;;;;;;5067280;28;24415;-52
2022/03/10 13:47:03;;;;;;;22.98;18.50;;;;;;;;;;5067164;28;24494;-52
2022/03/10 13:49:28;;;;;;;20.80;17.48;;;;;;;;;;5067048;28;24473;-51
2022/03/10 13:51:54;;;;;;;22.80;17.80;;;;;;;;;;5066934;28;24499;-52
2022/03/10 13:54:20;;;;;;;21.77;17.15;;;;;;;;;;5067262;28;24414;-52
2022/03/10 13:56:46;;;;;;;20.60;17.10;;;;;;;;;;5067014;28;24394;-52
2022/03/10 13:59:12;;;;;;;20.08;17.08;;;;;;;;;;5067046;28;24425;-52
2022/03/10 14:01:44;;;;;;;20.57;17.43;;;;;;;;;;5066910;28;24419;-52
2022/03/10 14:04:17;;;;;;;19.13;16.70;;;;;;;;;;5066562;28;24401;-52
2022/03/10 14:06:46;;;;;;;19.10;16.42;;;;;;;;;;5067091;28;24958;-52
2022/03/10 14:09:18;;;;;;;20.40;16.73;;;;;;;;;;5066692;28;24504;-52
2022/03/10 14:11:44;;;;;;;21.30;17.10;;;;;;;;;;5066763;28;24947;-51
2022/03/10 14:14:09;;;;;;;18.30;16.10;;;;;;;;;;5066622;28;24387;-51
2022/03/10 14:16:34;;;;;;;18.57;16.57;;;;;;;;;;5066860;28;24444;-51
2022/03/10 14:19:02;;;;;;;20.30;17.10;;;;;;;;;;5066566;28;24939;-51
2022/03/10 14:21:27;;;;;;;20.73;17.70;;;;;;;;;;5066774;28;24435;-50
2022/03/10 14:23:55;;;;;;;19.05;16.73;;;;;;;;;;5066432;28;24421;-51
2022/03/10 14:26:21;;;;;;;19.15;17.15;;;;;;;;;;5066706;28;24398;-51